Time;durP1;ratioP1;P1;durP2;ratioP2;P2;SDS_P1;SDS_P2;PMS_P1;PMS_P2;Temp;Humidity;BMP_temperature;BMP_pressure;BME280_temperature;BME280_humidity;BME280_pressure;Samples;Min_cycle;Max_cycle;Signal;HPM_P1;HPM_P2
2022/03/24 00:00:23;;;;;;;13.43;9.27;;;;;;;;;;5096069;28;20497;-69
2022/03/24 00:02:50;;;;;;;13.37;9.73;;;;;;;;;;5095885;28;20462;-69
2022/03/24 00:05:17;;;;;;;14.80;9.10;;;;;;;;;;5095789;28;20450;-69
2022/03/24 00:07:44;;;;;;;12.27;9.03;;;;;;;;;;5095829;28;20569;-69
2022/03/24 00:10:12;;;;;;;13.73;9.00;;;;;;;;;;5096297;28;20447;-69
2022/03/24 00:12:40;;;;;;;15.90;8.57;;;;;;;;;;5095865;28;20811;-69
2022/03/24 00:15:09;;;;;;;17.60;9.30;;;;;;;;;;5095464;28;20454;-70
2022/03/24 00:17:37;;;;;;;12.90;7.87;;;;;;;;;;5095681;28;20641;-69
2022/03/24 00:20:04;;;;;;;14.80;9.73;;;;;;;;;;5095962;28;20451;-69
2022/03/24 00:22:31;;;;;;;11.63;7.80;;;;;;;;;;5095773;28;20465;-69
2022/03/24 00:24:58;;;;;;;10.33;6.30;;;;;;;;;;5095539;28;20455;-69
2022/03/24 00:27:27;;;;;;;12.10;7.83;;;;;;;;;;5095781;28;20531;-69
2022/03/24 00:29:54;;;;;;;16.70;8.70;;;;;;;;;;5095548;28;20505;-70
2022/03/24 00:32:22;;;;;;;16.57;9.40;;;;;;;;;;5095463;28;20447;-69
2022/03/24 00:34:49;;;;;;;14.10;7.80;;;;;;;;;;5095442;28;20970;-69
2022/03/24 00:37:17;;;;;;;15.13;10.00;;;;;;;;;;5095572;28;20932;-69
2022/03/24 00:39:44;;;;;;;12.60;9.87;;;;;;;;;;5095574;28;20788;-69
2022/03/24 00:42:12;;;;;;;13.93;8.83;;;;;;;;;;5093877;28;20451;-69
2022/03/24 00:44:42;;;;;;;16.20;9.63;;;;;;;;;;5095350;28;20967;-69
2022/03/24 00:47:10;;;;;;;13.50;8.07;;;;;;;;;;5095075;28;20487;-69
2022/03/24 00:49:38;;;;;;;10.93;7.90;;;;;;;;;;5095196;28;20549;-69
2022/03/24 00:52:06;;;;;;;12.90;8.57;;;;;;;;;;5095200;28;20973;-69
2022/03/24 00:54:34;;;;;;;13.37;8.73;;;;;;;;;;5094884;28;20463;-69
2022/03/24 00:57:01;;;;;;;14.50;9.37;;;;;;;;;;5094940;28;20958;-69
2022/03/24 00:59:29;;;;;;;14.23;10.00;;;;;;;;;;5095064;28;21005;-69
2022/03/24 01:01:56;;;;;;;10.40;8.43;;;;;;;;;;5094922;28;20795;-70
2022/03/24 01:04:23;;;;;;;14.00;9.00;;;;;;;;;;5094944;28;20459;-69
2022/03/24 01:06:52;;;;;;;14.63;8.43;;;;;;;;;;5094820;28;20455;-69
2022/03/24 01:09:19;;;;;;;13.37;8.50;;;;;;;;;;5094793;28;20994;-69
2022/03/24 01:11:46;;;;;;;10.00;7.80;;;;;;;;;;5094859;28;20822;-69
2022/03/24 01:14:16;;;;;;;15.03;8.77;;;;;;;;;;5094747;28;20935;-69
2022/03/24 01:16:44;;;;;;;13.53;10.37;;;;;;;;;;5094810;28;20465;-69
2022/03/24 01:19:12;;;;;;;12.20;8.30;;;;;;;;;;5094571;28;20523;-69
2022/03/24 01:21:39;;;;;;;15.50;9.60;;;;;;;;;;5094589;28;20842;-69
2022/03/24 01:24:09;;;;;;;15.97;9.37;;;;;;;;;;5094253;28;20459;-70
2022/03/24 01:26:36;;;;;;;16.27;8.60;;;;;;;;;;5094633;28;20475;-69
2022/03/24 01:29:03;;;;;;;13.20;8.53;;;;;;;;;;5094481;28;20490;-69
2022/03/24 01:31:31;;;;;;;14.23;8.90;;;;;;;;;;5094585;28;20453;-69
2022/03/24 01:33:59;;;;;;;18.50;10.13;;;;;;;;;;5094166;28;20458;-69
2022/03/24 01:36:26;;;;;;;18.10;9.13;;;;;;;;;;5094446;28;20474;-69
2022/03/24 01:38:53;;;;;;;13.73;8.30;;;;;;;;;;5094086;28;20462;-69
2022/03/24 01:41:22;;;;;;;13.63;10.03;;;;;;;;;;5093930;28;20455;-69
2022/03/24 01:43:49;;;;;;;17.87;9.10;;;;;;;;;;5094050;28;20821;-69
2022/03/24 01:46:20;;;;;;;18.90;10.07;;;;;;;;;;5094305;28;20555;-69
2022/03/24 01:48:48;;;;;;;15.57;10.13;;;;;;;;;;5093960;28;20491;-69
2022/03/24 01:51:15;;;;;;;18.10;10.00;;;;;;;;;;5094129;28;20457;-69
2022/03/24 01:53:42;;;;;;;14.10;8.93;;;;;;;;;;5093687;28;20457;-69
2022/03/24 01:56:10;;;;;;;12.70;9.20;;;;;;;;;;5094218;28;20443;-69
2022/03/24 01:58:39;;;;;;;19.53;9.90;;;;;;;;;;5093841;28;20473;-69
2022/03/24 02:01:26;;;;;;;18.47;11.30;;;;;;;;;;5093963;28;20886;-69
2022/03/24 02:03:54;;;;;;;22.77;9.40;;;;;;;;;;5093822;28;20446;-69
2022/03/24 02:06:21;;;;;;;15.50;10.60;;;;;;;;;;5093876;28;20940;-69
2022/03/24 02:08:48;;;;;;;22.07;11.27;;;;;;;;;;5093813;28;20995;-70
2022/03/24 02:11:15;;;;;;;22.03;13.00;;;;;;;;;;5093889;28;20457;-69
2022/03/24 02:13:44;;;;;;;16.10;10.67;;;;;;;;;;5093530;28;20454;-69
2022/03/24 02:16:11;;;;;;;21.53;11.53;;;;;;;;;;5093786;28;20459;-70
2022/03/24 02:18:38;;;;;;;15.30;9.80;;;;;;;;;;5093661;28;20963;-69
2022/03/24 02:21:06;;;;;;;19.20;10.50;;;;;;;;;;5093583;28;20446;-69
2022/03/24 02:23:34;;;;;;;19.03;10.90;;;;;;;;;;5093343;28;20840;-69
2022/03/24 02:26:02;;;;;;;12.57;8.27;;;;;;;;;;5093451;28;20546;-69
2022/03/24 02:28:29;;;;;;;21.60;11.80;;;;;;;;;;5093401;28;20947;-69
2022/03/24 02:30:56;;;;;;;15.97;10.20;;;;;;;;;;5093400;28;20462;-70
2022/03/24 02:33:23;;;;;;;16.53;10.13;;;;;;;;;;5093465;28;20461;-70
2022/03/24 02:35:52;;;;;;;16.40;10.60;;;;;;;;;;5093051;28;20450;-70
2022/03/24 02:38:20;;;;;;;19.03;11.43;;;;;;;;;;5093427;28;20498;-69
2022/03/24 02:40:49;;;;;;;19.40;11.77;;;;;;;;;;5093482;28;20519;-69
2022/03/24 02:43:19;;;;;;;18.63;12.27;;;;;;;;;;5093292;28;20462;-69
2022/03/24 02:45:46;;;;;;;17.63;11.67;;;;;;;;;;5093094;28;20463;-69
2022/03/24 02:48:13;;;;;;;15.43;10.73;;;;;;;;;;5093160;28;20483;-69
2022/03/24 02:50:40;;;;;;;21.67;12.57;;;;;;;;;;5093483;28;20446;-69
2022/03/24 02:53:09;;;;;;;19.87;10.47;;;;;;;;;;5093027;28;20481;-69
2022/03/24 02:55:36;;;;;;;16.27;9.87;;;;;;;;;;5092797;28;20446;-70
2022/03/24 02:58:05;;;;;;;21.40;11.00;;;;;;;;;;5093047;28;20470;-69
2022/03/24 03:00:32;;;;;;;22.43;13.63;;;;;;;;;;5093324;28;20446;-69
2022/03/24 03:02:59;;;;;;;18.90;11.27;;;;;;;;;;5093069;28;20477;-69
2022/03/24 03:05:27;;;;;;;21.97;13.43;;;;;;;;;;5095075;28;20463;-69
2022/03/24 03:07:54;;;;;;;20.17;11.17;;;;;;;;;;5097093;28;20490;-69
2022/03/24 03:10:22;;;;;;;14.83;9.63;;;;;;;;;;5097031;28;20455;-69
2022/03/24 03:12:49;;;;;;;13.90;8.70;;;;;;;;;;5097071;28;20458;-70
2022/03/24 03:15:17;;;;;;;23.27;10.60;;;;;;;;;;5096957;28;20446;-69
2022/03/24 03:17:44;;;;;;;15.10;9.47;;;;;;;;;;5097152;28;20987;-69
2022/03/24 03:20:13;;;;;;;15.03;9.57;;;;;;;;;;5097208;28;20455;-69
2022/03/24 03:22:40;;;;;;;20.23;11.03;;;;;;;;;;5097041;28;21004;-69
2022/03/24 03:25:08;;;;;;;18.30;11.50;;;;;;;;;;5096672;28;20551;-69
2022/03/24 03:27:35;;;;;;;17.87;12.73;;;;;;;;;;5097008;28;20481;-69
2022/03/24 03:30:03;;;;;;;26.43;12.97;;;;;;;;;;5096873;28;20481;-69
2022/03/24 03:32:31;;;;;;;20.37;11.07;;;;;;;;;;5096812;28;20457;-69
2022/03/24 03:34:58;;;;;;;16.73;9.93;;;;;;;;;;5096440;28;20450;-71
2022/03/24 03:37:26;;;;;;;21.70;10.53;;;;;;;;;;5096686;28;20545;-71
2022/03/24 03:39:53;;;;;;;16.13;9.27;;;;;;;;;;5096849;28;20443;-72
2022/03/24 03:42:21;;;;;;;16.63;9.83;;;;;;;;;;5096323;28;20450;-69
2022/03/24 03:44:48;;;;;;;21.90;13.17;;;;;;;;;;5096589;28;20461;-69
2022/03/24 03:47:15;;;;;;;18.33;11.30;;;;;;;;;;5096418;28;20482;-69
2022/03/24 03:49:43;;;;;;;15.20;9.53;;;;;;;;;;5096431;28;20494;-70
2022/03/24 03:52:11;;;;;;;19.17;10.50;;;;;;;;;;5096239;28;20454;-69
2022/03/24 03:54:38;;;;;;;14.00;9.30;;;;;;;;;;5096282;28;20503;-70
2022/03/24 03:57:06;;;;;;;18.97;11.60;;;;;;;;;;5096263;28;20450;-69
2022/03/24 03:59:33;;;;;;;19.93;11.20;;;;;;;;;;5096488;28;20446;-69
2022/03/24 04:02:00;;;;;;;15.53;10.60;;;;;;;;;;5096052;28;20454;-69
2022/03/24 04:04:27;;;;;;;19.13;10.80;;;;;;;;;;5095921;28;20457;-69
2022/03/24 04:06:56;;;;;;;23.93;10.77;;;;;;;;;;5096076;28;20450;-69
2022/03/24 04:09:23;;;;;;;16.57;9.87;;;;;;;;;;5095852;28;20500;-69
2022/03/24 04:11:50;;;;;;;19.60;10.00;;;;;;;;;;5095987;28;20462;-69
2022/03/24 04:14:17;;;;;;;14.13;8.40;;;;;;;;;;5095559;28;20454;-69
2022/03/24 04:16:44;;;;;;;13.93;8.57;;;;;;;;;;5095509;28;20447;-69
2022/03/24 04:19:12;;;;;;;18.00;11.40;;;;;;;;;;5095272;28;20984;-69
2022/03/24 04:21:40;;;;;;;23.47;11.70;;;;;;;;;;5095397;28;20488;-69
2022/03/24 04:24:08;;;;;;;25.83;9.50;;;;;;;;;;5095401;28;20451;-69
2022/03/24 04:26:35;;;;;;;14.53;8.83;;;;;;;;;;5095419;28;20462;-69
2022/03/24 04:29:02;;;;;;;13.00;9.03;;;;;;;;;;5095343;28;20482;-69
2022/03/24 04:31:30;;;;;;;12.97;9.30;;;;;;;;;;5095301;28;20450;-70
2022/03/24 04:33:57;;;;;;;15.47;9.90;;;;;;;;;;5094930;28;20549;-70
2022/03/24 04:36:24;;;;;;;21.03;10.80;;;;;;;;;;5095333;28;20451;-69
2022/03/24 04:38:51;;;;;;;16.83;9.03;;;;;;;;;;5095049;28;20571;-69
2022/03/24 04:41:21;;;;;;;16.00;9.80;;;;;;;;;;5094689;28;20446;-69
2022/03/24 04:43:48;;;;;;;11.90;8.23;;;;;;;;;;5094855;28;20906;-70
2022/03/24 04:46:16;;;;;;;18.83;9.90;;;;;;;;;;5095134;28;20447;-70
2022/03/24 04:48:44;;;;;;;14.77;10.17;;;;;;;;;;5095021;28;20491;-69
2022/03/24 04:51:12;;;;;;;16.93;9.00;;;;;;;;;;5094853;28;20450;-69
2022/03/24 04:53:39;;;;;;;15.40;9.90;;;;;;;;;;5094699;28;20926;-69
2022/03/24 04:56:06;;;;;;;19.93;9.60;;;;;;;;;;5094782;28;20459;-69
2022/03/24 04:58:35;;;;;;;17.13;9.10;;;;;;;;;;5094750;28;20481;-69
2022/03/24 05:01:02;;;;;;;18.80;10.33;;;;;;;;;;5094726;28;20894;-70
2022/03/24 05:03:29;;;;;;;13.13;9.00;;;;;;;;;;5094598;28;20461;-69
2022/03/24 05:05:57;;;;;;;16.53;10.17;;;;;;;;;;5094566;28;20461;-70
2022/03/24 05:08:24;;;;;;;16.73;10.40;;;;;;;;;;5094588;28;20473;-69
2022/03/24 05:10:51;;;;;;;12.73;8.00;;;;;;;;;;5094484;28;20519;-70
2022/03/24 05:13:18;;;;;;;14.77;7.80;;;;;;;;;;5094976;28;20454;-70
2022/03/24 05:15:47;;;;;;;12.53;7.70;;;;;;;;;;5094531;28;20459;-70
2022/03/24 05:18:14;;;;;;;16.47;7.37;;;;;;;;;;5094439;28;20806;-69
2022/03/24 05:20:41;;;;;;;14.47;10.43;;;;;;;;;;5094330;28;20450;-69
2022/03/24 05:23:09;;;;;;;13.73;9.20;;;;;;;;;;5094191;28;20461;-69
2022/03/24 05:25:36;;;;;;;17.80;9.50;;;;;;;;;;5093879;28;20454;-70
2022/03/24 05:28:04;;;;;;;18.50;9.77;;;;;;;;;;5093600;28;20467;-69
2022/03/24 05:30:32;;;;;;;16.80;9.27;;;;;;;;;;5094091;28;20521;-69
2022/03/24 05:33:00;;;;;;;17.40;8.80;;;;;;;;;;5094065;28;20546;-69
2022/03/24 05:35:29;;;;;;;13.47;8.90;;;;;;;;;;5093878;28;20851;-69
2022/03/24 05:37:56;;;;;;;12.83;8.20;;;;;;;;;;5093795;28;20489;-69
2022/03/24 05:40:23;;;;;;;15.97;9.10;;;;;;;;;;5094014;28;20936;-69
2022/03/24 05:42:51;;;;;;;16.47;9.40;;;;;;;;;;5093973;28;20447;-69
2022/03/24 05:45:18;;;;;;;18.10;9.23;;;;;;;;;;5093662;28;20443;-69
2022/03/24 05:47:45;;;;;;;17.23;9.43;;;;;;;;;;5093840;28;20471;-69
2022/03/24 05:50:14;;;;;;;15.80;10.03;;;;;;;;;;5093816;28;20533;-69
2022/03/24 05:52:41;;;;;;;17.87;9.30;;;;;;;;;;5093655;28;20453;-70
2022/03/24 05:55:09;;;;;;;15.53;9.70;;;;;;;;;;5093102;28;21107;-69
2022/03/24 05:57:36;;;;;;;15.60;8.90;;;;;;;;;;5093545;28;20741;-69
2022/03/24 06:00:06;;;;;;;31.60;9.67;;;;;;;;;;5093402;28;20454;-69
2022/03/24 06:02:34;;;;;;;13.80;9.00;;;;;;;;;;5093833;28;20504;-69
2022/03/24 06:05:01;;;;;;;14.23;9.67;;;;;;;;;;5093355;28;20457;-69
2022/03/24 06:07:29;;;;;;;14.27;9.20;;;;;;;;;;5093177;28;20470;-70
2022/03/24 06:09:56;;;;;;;12.10;8.70;;;;;;;;;;5093314;28;21050;-70
2022/03/24 06:12:23;;;;;;;13.10;8.40;;;;;;;;;;5093494;28;20811;-70
2022/03/24 06:14:51;;;;;;;11.03;7.33;;;;;;;;;;5093177;28;20450;-70
2022/03/24 06:17:20;;;;;;;13.23;7.33;;;;;;;;;;5093433;28;20451;-70
2022/03/24 06:19:47;;;;;;;18.77;8.90;;;;;;;;;;5093603;28;20447;-69
2022/03/24 06:22:15;;;;;;;13.80;8.43;;;;;;;;;;5093350;28;20458;-70
2022/03/24 06:24:44;;;;;;;9.30;5.97;;;;;;;;;;5093021;28;20462;-70
2022/03/24 06:27:11;;;;;;;5.47;4.97;;;;;;;;;;5092968;28;20450;-70
2022/03/24 06:29:38;;;;;;;8.93;5.37;;;;;;;;;;5093073;28;20489;-70
2022/03/24 06:32:06;;;;;;;15.43;4.97;;;;;;;;;;5092920;28;20523;-70
2022/03/24 06:34:33;;;;;;;5.33;4.80;;;;;;;;;;5092778;28;20560;-70
2022/03/24 06:37:01;;;;;;;6.33;4.67;;;;;;;;;;5092803;28;20458;-70
2022/03/24 06:39:28;;;;;;;4.90;4.40;;;;;;;;;;5092166;28;20818;-70
2022/03/24 06:41:56;;;;;;;6.90;3.80;;;;;;;;;;5092916;28;20454;-70
2022/03/24 06:44:23;;;;;;;4.37;3.27;;;;;;;;;;5089051;28;20482;-72
2022/03/24 06:46:50;;;;;;;5.50;3.80;;;;;;;;;;5090628;28;20831;-70
2022/03/24 06:49:17;;;;;;;5.10;3.63;;;;;;;;;;5091617;28;20495;-71
2022/03/24 06:51:45;;;;;;;6.10;3.17;;;;;;;;;;5092148;28;20445;-70
2022/03/24 06:54:12;;;;;;;4.03;3.03;;;;;;;;;;5091435;28;20454;-73
2022/03/24 06:56:40;;;;;;;5.30;3.10;;;;;;;;;;5092428;28;20446;-72
2022/03/24 06:59:08;;;;;;;6.43;3.90;;;;;;;;;;5092203;28;20880;-73
2022/03/24 07:01:35;;;;;;;4.73;3.70;;;;;;;;;;5092017;28;20450;-73
2022/03/24 07:04:02;;;;;;;6.37;3.57;;;;;;;;;;5092113;28;20956;-73
2022/03/24 07:06:29;;;;;;;3.50;3.20;;;;;;;;;;5092243;28;20831;-73
2022/03/24 07:08:56;;;;;;;4.57;3.33;;;;;;;;;;5091946;28;20481;-73
2022/03/24 07:11:23;;;;;;;4.67;4.10;;;;;;;;;;5092084;28;20458;-73
2022/03/24 07:13:50;;;;;;;4.70;4.17;;;;;;;;;;5091807;28;20947;-71
2022/03/24 07:16:19;;;;;;;6.20;4.17;;;;;;;;;;5091643;28;20455;-71
2022/03/24 07:18:46;;;;;;;5.07;4.07;;;;;;;;;;5092633;28;20475;-71
2022/03/24 07:21:14;;;;;;;8.73;4.30;;;;;;;;;;5093034;28;20958;-72
2022/03/24 07:23:41;;;;;;;4.40;4.00;;;;;;;;;;5092820;28;20502;-73
2022/03/24 07:26:09;;;;;;;6.00;4.20;;;;;;;;;;5092953;28;20446;-73
2022/03/24 07:28:36;;;;;;;4.00;3.23;;;;;;;;;;5090614;28;20508;-74
2022/03/24 07:31:09;;;;;;;3.97;3.57;;;;;;;;;;5091515;28;20491;-74
2022/03/24 07:33:37;;;;;;;5.17;3.67;;;;;;;;;;5091954;28;20968;-73
2022/03/24 07:36:06;;;;;;;5.80;3.50;;;;;;;;;;5091448;28;20454;-73
2022/03/24 07:38:33;;;;;;;4.17;3.50;;;;;;;;;;5092117;28;20470;-73
2022/03/24 07:41:01;;;;;;;4.30;3.90;;;;;;;;;;5091492;28;20454;-73
2022/03/24 07:43:28;;;;;;;4.30;3.77;;;;;;;;;;5091588;28;20849;-73
2022/03/24 07:45:55;;;;;;;4.27;3.93;;;;;;;;;;5091561;28;20454;-74
2022/03/24 07:48:25;;;;;;;3.70;3.00;;;;;;;;;;5092083;28;20994;-73
2022/03/24 07:50:54;;;;;;;5.70;3.20;;;;;;;;;;5092741;28;20485;-73
2022/03/24 07:53:45;;;;;;;4.97;3.33;;;;;;;;;;5095517;28;20936;-74
2022/03/24 07:56:12;;;;;;;6.70;3.07;;;;;;;;;;5095426;28;20442;-73
2022/03/24 07:58:39;;;;;;;4.53;3.70;;;;;;;;;;5095605;28;20833;-73
2022/03/24 08:01:07;;;;;;;5.23;4.13;;;;;;;;;;5095315;28;20443;-73
2022/03/24 08:03:35;;;;;;;6.20;4.27;;;;;;;;;;5095092;28;20446;-73
2022/03/24 08:06:04;;;;;;;6.73;4.80;;;;;;;;;;5094702;28;20486;-73
2022/03/24 08:08:31;;;;;;;5.37;4.87;;;;;;;;;;5095078;28;20462;-73
2022/03/24 08:10:59;;;;;;;5.07;4.10;;;;;;;;;;5095023;28;20482;-73
2022/03/24 08:13:27;;;;;;;9.20;3.67;;;;;;;;;;5095296;28;20976;-74
2022/03/24 08:15:56;;;;;;;4.73;4.00;;;;;;;;;;5094848;28;20459;-73
2022/03/24 08:18:23;;;;;;;4.50;4.10;;;;;;;;;;5094985;28;20462;-73
2022/03/24 08:20:51;;;;;;;7.10;3.57;;;;;;;;;;5094451;28;20451;-74
2022/03/24 08:23:21;;;;;;;6.37;3.47;;;;;;;;;;5094685;28;20462;-73
2022/03/24 08:25:48;;;;;;;6.10;3.57;;;;;;;;;;5094428;28;20465;-73
2022/03/24 08:28:15;;;;;;;3.63;3.10;;;;;;;;;;5094252;28;20462;-73
2022/03/24 08:30:44;;;;;;;4.20;3.30;;;;;;;;;;5094466;28;20494;-73
2022/03/24 08:33:11;;;;;;;3.10;2.80;;;;;;;;;;5094115;28;20455;-74
2022/03/24 08:35:38;;;;;;;3.97;3.57;;;;;;;;;;5094096;28;20459;-74
2022/03/24 08:38:05;;;;;;;5.97;3.20;;;;;;;;;;5093966;28;20471;-74
2022/03/24 08:40:34;;;;;;;4.00;3.60;;;;;;;;;;5092639;28;21260;-74
2022/03/24 08:43:02;;;;;;;3.27;2.87;;;;;;;;;;5093956;28;20451;-74
2022/03/24 08:45:29;;;;;;;5.07;3.60;;;;;;;;;;5093818;28;20455;-74
2022/03/24 08:47:56;;;;;;;4.40;4.00;;;;;;;;;;5090461;28;20482;-74
2022/03/24 08:50:24;;;;;;;4.60;4.10;;;;;;;;;;5075291;28;20484;-74
2022/03/24 08:52:51;;;;;;;10.03;4.50;;;;;;;;;;5074979;28;20455;-74
2022/03/24 08:55:18;;;;;;;4.70;3.97;;;;;;;;;;5074953;28;20459;-73
2022/03/24 08:57:47;;;;;;;5.60;4.90;;;;;;;;;;5075020;28;20476;-73
2022/03/24 09:00:16;;;;;;;7.50;5.40;;;;;;;;;;5074844;28;20456;-74
2022/03/24 09:02:44;;;;;;;4.90;4.30;;;;;;;;;;5074006;28;20459;-74
2022/03/24 09:05:11;;;;;;;5.67;4.77;;;;;;;;;;5074887;28;20455;-73
2022/03/24 09:07:39;;;;;;;5.50;5.00;;;;;;;;;;5074808;28;20475;-74
2022/03/24 09:10:07;;;;;;;6.43;4.03;;;;;;;;;;5074801;28;20492;-74
2022/03/24 09:12:35;;;;;;;5.17;4.47;;;;;;;;;;5074751;28;20459;-74
2022/03/24 09:15:05;;;;;;;5.50;4.57;;;;;;;;;;5074412;28;20505;-74
2022/03/24 09:17:32;;;;;;;5.53;4.87;;;;;;;;;;5074572;28;20476;-74
2022/03/24 09:20:00;;;;;;;5.50;4.80;;;;;;;;;;5074730;28;20539;-74
2022/03/24 09:22:27;;;;;;;5.00;4.23;;;;;;;;;;5074638;28;20463;-74
2022/03/24 09:24:54;;;;;;;5.53;5.03;;;;;;;;;;5074302;28;20447;-74
2022/03/24 09:27:22;;;;;;;5.30;4.43;;;;;;;;;;5074365;28;20472;-74
2022/03/24 09:29:50;;;;;;;5.30;4.80;;;;;;;;;;5074418;28;20948;-75
2022/03/24 09:32:19;;;;;;;5.53;3.70;;;;;;;;;;5074406;28;20451;-74
2022/03/24 09:34:46;;;;;;;5.67;5.17;;;;;;;;;;5074087;28;20467;-75
2022/03/24 09:37:17;;;;;;;7.03;4.80;;;;;;;;;;5074242;28;20459;-74
2022/03/24 09:39:44;;;;;;;4.57;3.87;;;;;;;;;;5074271;28;20828;-75
2022/03/24 09:42:12;;;;;;;5.17;4.67;;;;;;;;;;5073633;28;20470;-74
2022/03/24 09:44:39;;;;;;;6.70;4.40;;;;;;;;;;5073952;28;20499;-74
2022/03/24 09:47:06;;;;;;;5.50;4.90;;;;;;;;;;5073788;28;20452;-74
2022/03/24 09:49:35;;;;;;;5.10;4.60;;;;;;;;;;5074157;28;20447;-74
2022/03/24 09:52:02;;;;;;;7.93;5.23;;;;;;;;;;5074088;28;20483;-74
2022/03/24 09:54:29;;;;;;;6.07;5.47;;;;;;;;;;5073677;28;20448;-74
2022/03/24 09:56:56;;;;;;;6.00;5.47;;;;;;;;;;5073717;28;20937;-74
2022/03/24 09:59:23;;;;;;;6.70;6.10;;;;;;;;;;5073769;28;20471;-74
2022/03/24 10:01:50;;;;;;;8.20;5.33;;;;;;;;;;5073613;28;20443;-75
2022/03/24 10:04:18;;;;;;;8.77;6.70;;;;;;;;;;5073615;28;20474;-74
2022/03/24 10:07:00;;;;;;;7.50;6.80;;;;;;;;;;5073583;28;20492;-74
2022/03/24 10:09:37;;;;;;;7.70;7.00;;;;;;;;;;5073625;28;20448;-74
2022/03/24 10:12:05;;;;;;;8.00;6.00;;;;;;;;;;5073340;28;20490;-74
2022/03/24 10:14:32;;;;;;;8.73;6.20;;;;;;;;;;5073222;28;20460;-74
2022/03/24 10:17:06;;;;;;;9.07;6.67;;;;;;;;;;5073346;28;20459;-74
2022/03/24 10:19:34;;;;;;;7.57;6.77;;;;;;;;;;5073439;28;20458;-74
2022/03/24 10:22:07;;;;;;;8.03;6.47;;;;;;;;;;5073249;28;20887;-74
2022/03/24 10:24:40;;;;;;;8.23;7.40;;;;;;;;;;5073129;28;20460;-74
2022/03/24 10:27:07;;;;;;;7.83;7.03;;;;;;;;;;5073552;28;20447;-74
2022/03/24 10:29:35;;;;;;;8.33;7.63;;;;;;;;;;5073407;28;20833;-74
2022/03/24 10:32:03;;;;;;;9.23;8.00;;;;;;;;;;5073086;28;20483;-74
2022/03/24 10:34:31;;;;;;;9.00;8.10;;;;;;;;;;5073109;28;20494;-74
2022/03/24 10:36:59;;;;;;;13.03;8.03;;;;;;;;;;5073115;28;20505;-74
2022/03/24 10:39:28;;;;;;;10.60;7.40;;;;;;;;;;5073433;28;20941;-74
2022/03/24 10:41:55;;;;;;;9.60;7.47;;;;;;;;;;5073055;28;20440;-74
2022/03/24 10:44:22;;;;;;;9.53;7.47;;;;;;;;;;5072831;28;20455;-74
2022/03/24 10:46:49;;;;;;;13.03;7.73;;;;;;;;;;5072974;28;20455;-74
2022/03/24 10:49:17;;;;;;;9.40;7.40;;;;;;;;;;5073123;28;20476;-74
2022/03/24 10:51:46;;;;;;;9.57;7.00;;;;;;;;;;5072852;28;20479;-74
2022/03/24 10:54:19;;;;;;;8.10;7.30;;;;;;;;;;5072653;28;20528;-74
2022/03/24 10:56:52;;;;;;;11.50;8.10;;;;;;;;;;5072830;28;20463;-75
2022/03/24 10:59:19;;;;;;;9.93;8.30;;;;;;;;;;5072880;28;20999;-74
2022/03/24 11:01:47;;;;;;;13.70;8.40;;;;;;;;;;5073100;28;20455;-75
2022/03/24 11:04:14;;;;;;;12.60;9.30;;;;;;;;;;5072615;28;20440;-74
2022/03/24 11:06:49;;;;;;;10.60;8.27;;;;;;;;;;5072882;28;20447;-74
2022/03/24 11:09:22;;;;;;;13.80;9.00;;;;;;;;;;5072828;28;20517;-74
2022/03/24 11:11:57;;;;;;;8.27;7.47;;;;;;;;;;5072827;28;20956;-75
2022/03/24 11:14:24;;;;;;;10.07;8.73;;;;;;;;;;5072655;28;20462;-74
2022/03/24 11:16:52;;;;;;;10.10;9.10;;;;;;;;;;5072623;28;20462;-74
2022/03/24 11:19:19;;;;;;;10.10;8.60;;;;;;;;;;5072685;28;20475;-74
2022/03/24 11:21:52;;;;;;;10.53;8.53;;;;;;;;;;5072669;28;20512;-75
2022/03/24 11:24:20;;;;;;;10.53;8.80;;;;;;;;;;5072635;28;20448;-75
2022/03/24 11:26:47;;;;;;;16.73;8.40;;;;;;;;;;5075308;28;20917;-75
2022/03/24 11:29:16;;;;;;;10.20;8.43;;;;;;;;;;5076526;28;20471;-75
2022/03/24 11:31:45;;;;;;;11.77;8.20;;;;;;;;;;5076722;28;21014;-75
2022/03/24 11:34:12;;;;;;;11.63;8.73;;;;;;;;;;5076490;28;20447;-75
2022/03/24 11:36:40;;;;;;;9.90;8.90;;;;;;;;;;5076381;28;20447;-75
2022/03/24 11:39:09;;;;;;;9.60;8.70;;;;;;;;;;5076208;28;20472;-75
2022/03/24 11:41:38;;;;;;;12.13;8.30;;;;;;;;;;5076397;28;20473;-75
2022/03/24 11:44:07;;;;;;;10.30;9.27;;;;;;;;;;5076056;28;20456;-75
2022/03/24 11:46:40;;;;;;;10.20;8.60;;;;;;;;;;5076301;28;20494;-75
2022/03/24 11:49:16;;;;;;;11.40;8.60;;;;;;;;;;5076164;28;20471;-75
2022/03/24 11:51:43;;;;;;;11.53;10.00;;;;;;;;;;5076205;28;20483;-75
2022/03/24 11:54:11;;;;;;;14.53;9.00;;;;;;;;;;5075903;28;20967;-75
2022/03/24 11:56:38;;;;;;;11.80;8.67;;;;;;;;;;5076275;28;20444;-75
2022/03/24 11:59:21;;;;;;;13.00;9.30;;;;;;;;;;5076145;28;20472;-75
2022/03/24 12:02:10;;;;;;;11.80;8.47;;;;;;;;;;5075994;28;20888;-75
2022/03/24 12:04:50;;;;;;;12.00;8.87;;;;;;;;;;5075588;28;20451;-75
2022/03/24 12:07:18;;;;;;;16.50;14.00;;;;;;;;;;5075764;28;20443;-75
2022/03/24 12:09:56;;;;;;;9.20;8.00;;;;;;;;;;5075867;28;20451;-76
2022/03/24 12:12:23;;;;;;;8.80;8.00;;;;;;;;;;5075703;28;20494;-75
2022/03/24 12:14:53;;;;;;;12.27;9.67;;;;;;;;;;5075847;28;20466;-75
2022/03/24 12:17:23;;;;;;;11.83;10.17;;;;;;;;;;5075741;28;20447;-74
2022/03/24 12:19:51;;;;;;;9.43;8.30;;;;;;;;;;5075816;28;20575;-75
2022/03/24 12:22:38;;;;;;;11.00;9.43;;;;;;;;;;5075651;28;20460;-75
2022/03/24 12:25:22;;;;;;;10.83;8.97;;;;;;;;;;5075575;28;20452;-74
2022/03/24 12:28:10;;;;;;;10.60;9.37;;;;;;;;;;5075706;28;20498;-75
2022/03/24 12:30:48;;;;;;;10.20;7.80;;;;;;;;;;5070742;28;20459;-75
2022/03/24 12:33:17;;;;;;;9.03;7.97;;;;;;;;;;5075531;28;20817;-74
2022/03/24 12:35:45;;;;;;;9.77;8.77;;;;;;;;;;5075464;28;20463;-75
2022/03/24 12:38:30;;;;;;;10.07;8.17;;;;;;;;;;5074396;28;20472;-75
2022/03/24 12:41:17;;;;;;;7.67;6.90;;;;;;;;;;5075600;28;20444;-73
2022/03/24 12:43:46;;;;;;;7.13;6.47;;;;;;;;;;5075231;28;20451;-74
2022/03/24 12:46:20;;;;;;;14.50;10.73;;;;;;;;;;5075600;28;20452;-73
2022/03/24 12:48:49;;;;;;;9.13;7.87;;;;;;;;;;5075221;28;20969;-73
2022/03/24 12:51:21;;;;;;;10.27;8.37;;;;;;;;;;5075191;28;20491;-73
2022/03/24 12:53:51;;;;;;;9.77;7.67;;;;;;;;;;5074751;28;20544;-73
2022/03/24 12:56:22;;;;;;;11.37;7.63;;;;;;;;;;5074743;28;20546;-72
2022/03/24 12:58:53;;;;;;;8.60;7.63;;;;;;;;;;5074891;28;20479;-72
2022/03/24 13:01:20;;;;;;;9.93;8.33;;;;;;;;;;5075053;28;20816;-73
2022/03/24 13:03:54;;;;;;;8.73;7.73;;;;;;;;;;5074626;28;20452;-73
2022/03/24 13:06:22;;;;;;;9.03;7.83;;;;;;;;;;5075077;28;20464;-75
2022/03/24 13:09:04;;;;;;;9.70;7.60;;;;;;;;;;5074722;28;20471;-74
2022/03/24 13:11:48;;;;;;;8.33;6.90;;;;;;;;;;5074650;28;20495;-73
2022/03/24 13:14:17;;;;;;;8.10;6.83;;;;;;;;;;5074659;28;20483;-74
2022/03/24 13:16:44;;;;;;;9.50;6.90;;;;;;;;;;5074783;28;20505;-73
2022/03/24 13:19:12;;;;;;;9.93;7.70;;;;;;;;;;5074605;28;20471;-73
2022/03/24 13:21:39;;;;;;;8.60;7.37;;;;;;;;;;5074549;28;20501;-73
2022/03/24 13:24:07;;;;;;;10.77;6.57;;;;;;;;;;5074376;28;20459;-73
2022/03/24 13:26:34;;;;;;;7.87;7.07;;;;;;;;;;5074422;28;20455;-73
2022/03/24 13:29:01;;;;;;;11.50;7.40;;;;;;;;;;5074476;28;20467;-74
2022/03/24 13:31:30;;;;;;;12.93;6.90;;;;;;;;;;5074198;28;20525;-73
2022/03/24 13:33:57;;;;;;;10.60;7.50;;;;;;;;;;5074018;28;20492;-74
2022/03/24 13:36:25;;;;;;;10.53;7.57;;;;;;;;;;5074188;28;20462;-73
2022/03/24 13:38:52;;;;;;;9.53;7.60;;;;;;;;;;5074323;28;20479;-73
2022/03/24 13:41:20;;;;;;;7.50;6.70;;;;;;;;;;5074328;28;20443;-73
2022/03/24 13:43:47;;;;;;;8.03;6.93;;;;;;;;;;5073952;28;20447;-73
2022/03/24 13:46:14;;;;;;;9.33;7.07;;;;;;;;;;5073869;28;20451;-73
2022/03/24 13:48:42;;;;;;;10.07;7.27;;;;;;;;;;5073554;28;20476;-73
2022/03/24 13:51:11;;;;;;;10.50;6.80;;;;;;;;;;5073811;28;20444;-73
2022/03/24 13:53:39;;;;;;;9.50;7.30;;;;;;;;;;5073657;28;20494;-73
2022/03/24 13:56:08;;;;;;;10.70;7.00;;;;;;;;;;5073637;28;20578;-73
2022/03/24 13:58:36;;;;;;;9.67;7.87;;;;;;;;;;5073633;28;20476;-73
2022/03/24 14:01:04;;;;;;;9.23;7.53;;;;;;;;;;5073787;28;20455;-73
2022/03/24 14:03:31;;;;;;;12.57;7.87;;;;;;;;;;5073707;28;20464;-73
2022/03/24 14:06:00;;;;;;;10.03;7.03;;;;;;;;;;5073669;28;20452;-73
2022/03/24 14:08:31;;;;;;;7.87;7.00;;;;;;;;;;5073571;28;20566;-73
2022/03/24 14:11:12;;;;;;;10.30;7.33;;;;;;;;;;5073688;28;20509;-73
2022/03/24 14:13:40;;;;;;;9.63;7.20;;;;;;;;;;5073452;28;20953;-72
2022/03/24 14:16:08;;;;;;;9.17;7.27;;;;;;;;;;5073367;28;20448;-72
2022/03/24 14:18:36;;;;;;;10.07;7.40;;;;;;;;;;5073439;28;20463;-72
2022/03/24 14:21:03;;;;;;;9.40;7.40;;;;;;;;;;5073315;28;20460;-73
2022/03/24 14:23:32;;;;;;;9.70;8.00;;;;;;;;;;5073064;28;20456;-73
2022/03/24 14:26:03;;;;;;;10.47;7.80;;;;;;;;;;5073197;28;20933;-73
2022/03/24 14:28:35;;;;;;;12.50;7.20;;;;;;;;;;5073359;28;20547;-73
2022/03/24 14:31:05;;;;;;;8.87;7.67;;;;;;;;;;5073901;28;20937;-73
2022/03/24 14:33:44;;;;;;;9.57;7.83;;;;;;;;;;5073008;28;20992;-73
2022/03/24 14:36:11;;;;;;;9.23;7.70;;;;;;;;;;5073154;28;20467;-73
2022/03/24 14:38:38;;;;;;;12.90;9.07;;;;;;;;;;5073254;28;20472;-72
2022/03/24 14:41:07;;;;;;;11.87;9.17;;;;;;;;;;5072528;28;20455;-73